• Join FlightAware (Why Join?)
  • Login
  • US Flag 
08:35AM EDT


 

Airport Tracker/Info


-or-


 

Live Flight TrackerFlight Track Log ✈ AAL1482 ✈ 19-Apr-2013 ✈ KLAS - KDFW

Flight Track Log - Related Links

Times and Time Zones

All times are in EDT time to prevent confusion due to time zone crossing. See the AAL1482 flight status page for this flight to view local times or setup timezone preferences in your user account.

Time Position Orientation Groundspeed Altitude Reporting Facility
EDT Latitude Longitude Course Direction KTS MPH feet Rate Location/Type
08:38PM 36.0758 -115.1869 83° East 159 183 5,000  Level Los Angeles Center
08:39PM 36.0642 -115.2625 259° West 240 276 7,100 2,340 Climbing Los Angeles Center
08:40PM 35.9858 -115.2794 190° South 274 315 10,600 3,120 Climbing Los Angeles Center
08:41PM 35.8246 -114.9798 84° East  Level FlightAware Approximate
08:41PM 35.9478 -115.1689 113° Southeast 313 360 14,200  Level Los Angeles Center
08:42PM 35.8371 -114.8223 84° East  Level FlightAware Approximate
08:42PM 35.9539 -115.0500 86° East 339 390 16,200  Level Los Angeles Center
08:43PM 35.8502 -114.6648 83° East  Level FlightAware Approximate
08:43PM 35.9483 -114.9089 93° East 396 456 18,200  Level Los Angeles Center
08:44PM 35.9447 -114.7517 92° East 453 521 20,100 1,980 Climbing Los Angeles Center
08:45PM 35.9411 -114.5878 92° East 476 548 22,300 1,980 Climbing Los Angeles Center
08:46PM 35.9367 -114.4169 92° East 497 572 24,200 1,920 Climbing Los Angeles Center
08:47PM 35.9308 -114.2036 92° East 517 595 26,400 1,920 Climbing Los Angeles Center
08:48PM 35.9258 -114.0228 92° East 527 606 28,300 1,980 Climbing Los Angeles Center
08:50PM 35.9150 -113.8400 94° East 533 613 30,500 2,040 Climbing Los Angeles Center
08:51PM 35.8858 -113.6611 101° East 533 613 32,600 2,100 Climbing Los Angeles Center
08:52PM 35.8533 -113.4664 102° East 531 611 34,900 1,980 Climbing Los Angeles Center
08:53PM 35.8258 -113.2908 101° East 525 604 36,700 960 Climbing Los Angeles Center
08:54PM 35.7983 -113.1139 101° East 525 604 37,000 120 Climbing Los Angeles Center
08:55PM 35.7697 -112.9344 101° East 530 610 37,000  Level Los Angeles Center
08:56PM 35.7403 -112.7550 101° East 534 615 37,000 180 Level Los Angeles Center
08:57PM 35.7114 -112.5750 101° East 533 613 37,400 960 Climbing Los Angeles Center
08:58PM 35.6758 -112.3631 102° East 529 609 39,000 780 Climbing Los Angeles Center
08:59PM 35.6453 -112.1908 102° East 521 600 39,100  Climbing Los Angeles Center
09:00PM 35.6158 -112.0222 102° East 514 592 39,100  Level Albuquerque Center
09:01PM 35.5928 -111.8503 99° East 514 592 39,100 120 Level Albuquerque Center
09:02PM 35.5872 -111.6794 92° East 506 582 39,400 420 Climbing Albuquerque Center
09:03PM 35.5844 -111.5047 91° East 511 588 40,000 540 Climbing Albuquerque Center
09:04PM 35.5786 -111.3286 92° East 517 595 40,600 480 Climbing Albuquerque Center
09:05PM 35.5708 -111.1297 93° East 523 602 41,100 240 Climbing Albuquerque Center
09:06PM 35.5647 -110.9614 93° East 520 598 41,100  Level Albuquerque Center
09:07PM 35.5581 -110.7667 92° East 513 590 41,100  Level Albuquerque Center
09:08PM 35.5514 -110.5994 93° East 513 590 41,100  Level Albuquerque Center
09:09PM 35.5447 -110.4042 92° East 513 590 41,100  Level Albuquerque Center
09:10PM 35.5375 -110.2369 93° East 513 590 41,100  Level Albuquerque Center
09:11PM 35.5317 -110.0708 92° East 513 590 41,100  Level Albuquerque Center
09:12PM 35.5242 -109.8758 93° East 513 590 41,100  Level Albuquerque Center
09:13PM 35.5175 -109.7089 93° East 513 590 41,100  Level Albuquerque Center
09:14PM 35.5094 -109.5139 93° East 514 592 41,100  Level Albuquerque Center
09:15PM 35.5011 -109.3450 93° East 517 595 41,100  Level Albuquerque Center
09:16PM 35.4889 -109.1508 94° East 515 593 41,100  Level Albuquerque Center
09:17PM 35.4700 -108.9853 98° East 516 594 41,100  Level Albuquerque Center
09:18PM 35.4492 -108.8192 99° East 517 595 41,100  Level Albuquerque Center
09:19PM 35.4225 -108.6222 99° East 524 603 41,100  Level Albuquerque Center
09:20PM 35.4003 -108.4542 99° East 525 604 41,100  Level Albuquerque Center
09:21PM 35.3739 -108.2592 99° East 522 601 41,100  Level Albuquerque Center
09:22PM 35.3511 -108.0903 99° East 525 604 41,100  Level Albuquerque Center
09:23PM 35.3233 -107.8947 100° East 524 603 41,100  Level Albuquerque Center
09:24PM 35.2994 -107.7278 100° East 522 601 41,100  Level Albuquerque Center
09:25PM 35.2747 -107.5603 100° East 522 601 41,100  Level Albuquerque Center
09:26PM 35.2453 -107.3667 100° East 525 604 41,100  Level Albuquerque Center
09:27PM 35.2186 -107.1856 100° East 525 604 41,100  Level Albuquerque Center
09:28PM 35.1911 -106.9997 100° East 523 602 41,100  Level Albuquerque Center
09:29PM 35.1653 -106.8333 101° East 521 600 41,100  Level Albuquerque Center
09:31PM 35.1425 -106.6675 99° East 518 596 41,100  Level Albuquerque Center
09:32PM 35.1117 -106.4792 101° East 522 601 41,100  Level Albuquerque Center
09:33PM 35.0844 -106.3039 101° East 525 604 41,100  Level Albuquerque Center
09:34PM 35.0583 -106.1306 100° East 520 598 41,100  Level Albuquerque Center
09:35PM 35.0311 -105.9575 101° East 520 598 41,100  Level Albuquerque Center
09:36PM 34.9989 -105.7536 101° East 521 600 41,100  Level Albuquerque Center
09:37PM 34.9714 -105.5786 101° East 521 600 41,100  Level Albuquerque Center
09:38PM 34.9422 -105.4028 101° East 524 603 41,100  Level Albuquerque Center
09:39PM 34.9114 -105.2261 102° East 528 608 41,100  Level Albuquerque Center
09:40PM 34.8844 -105.0492 100° East 528 608 41,100  Level Albuquerque Center
09:41PM 34.8558 -104.8739 101° East 526 605 41,100  Level Albuquerque Center
09:42PM 34.8256 -104.6969 102° East 530 610 41,100  Level Albuquerque Center
09:43PM 34.7975 -104.5247 101° East 522 601 41,100  Level Albuquerque Center
09:44PM 34.7686 -104.3519 101° East 520 598 41,100  Level Albuquerque Center
09:45PM 34.7392 -104.1792 102° East 521 600 41,100  Level Albuquerque Center
09:46PM 34.7042 -103.9789 102° East 520 598 41,100  Level Albuquerque Center
09:47PM 34.6744 -103.8075 102° East 518 596 41,100  Level Albuquerque Center
09:48PM 34.6439 -103.6350 102° East 519 597 41,100  Level Albuquerque Center
09:49PM 34.6136 -103.4614 102° East 522 601 41,100  Level Albuquerque Center
09:50PM 34.5817 -103.2858 102° East 527 606 41,100  Level Albuquerque Center
09:51PM 34.5478 -103.1122 103° East 527 606 41,100  Level Albuquerque Center
09:52PM 34.5161 -102.9400 103° East 523 602 41,100  Level Albuquerque Center
09:53PM 34.4861 -102.7564 101° East 520 598 41,100  Level Albuquerque Center
09:54PM 34.4700 -102.5856 96° East 517 595 41,100  Level Albuquerque Center
09:55PM 34.4522 -102.4122 97° East 517 595 41,100  Level Albuquerque Center
09:56PM 34.4344 -102.2406 97° East 518 596 41,100  Level Albuquerque Center
09:57PM 34.4167 -102.0672 97° East 519 597 41,100  Level Albuquerque Center
09:58PM 34.3969 -101.8928 98° East 524 603 41,100  Level Albuquerque Center
09:59PM 34.3733 -101.6847 98° East 524 603 41,100  Level Albuquerque Center
10:00PM 34.3544 -101.5100 97° East 526 605 41,100  Level Albuquerque Center
10:01PM 34.3344 -101.3367 98° East 525 604 41,100  Level Albuquerque Center
10:02PM 34.3147 -101.1653 98° East 521 600 41,100  Level Albuquerque Center
10:03PM 34.2942 -100.9933 98° East 521 600 41,100  Level Albuquerque Center
10:04PM 34.2592 -100.7856 101° East 522 601 41,100  Level Fort Worth Center
10:05PM 34.2197 -100.6208 106° East 517 595 41,100  Level Fort Worth Center
10:06PM 34.1822 -100.4511 105° East 517 595 41,100 -120 Level Fort Worth Center
10:07PM 34.1461 -100.3044 107° East 517 595 40,900 -840 Descending Fort Worth Center
10:08PM 34.1061 -100.1375 106° East 512 589 39,500 -1,200 Descending Fort Worth Center
10:09PM 34.0658 -99.9683 106° East 519 597 38,500 -1,020 Descending Fort Worth Center
10:10PM 34.0275 -99.7992 105° East 519 597 37,500 -720 Descending Fort Worth Center
10:11PM 33.9886 -99.6328 106° East 519 597 37,100 -240 Descending Fort Worth Center
10:12PM 33.9478 -99.4717 107° East 519 597 37,100 -540 Level Fort Worth Center
10:13PM 33.9047 -99.2878 106° East 519 597 36,100 -1,860 Descending Fort Worth Center
10:14PM 33.8631 -99.1244 107° East 519 597 33,400 -3,000 Descending Fort Worth Center
10:15PM 33.8217 -98.9561 106° East 519 597 30,200 -2,820 Descending Fort Worth Center
10:16PM 33.7669 -98.8003 113° Southeast 513 590 27,800 -1,860 Descending Fort Worth Center
10:17PM 33.7144 -98.6444 112° Southeast 508 585 26,500 -1,320 Descending Fort Worth Center
10:18PM 33.6658 -98.4867 110° East 502 578 25,200 -1,260 Descending Fort Worth Center
10:19PM 33.6189 -98.3364 111° Southeast 495 570 24,000 -1,500 Descending Fort Worth Center
10:20PM 33.5678 -98.1889 113° Southeast 489 563 22,300 -2,160 Descending Fort Worth Center
10:21PM 33.5164 -98.0439 113° Southeast 477 549 19,700 -2,700 Descending Fort Worth Center
10:22PM 33.4711 -97.9064 112° Southeast 450 518 16,900 -2,700 Descending Fort Worth Center
10:23PM 33.4256 -97.7744 112° Southeast 440 506 14,400 -1,980 Descending Fort Worth Center
10:24PM 33.3842 -97.6497 112° Southeast 407 468 13,000 -1,560 Descending Fort Worth Center
10:25PM 33.3175 -97.5600 132° Southeast 358 412 11,300 -1,020 Descending Fort Worth Center
10:26PM 33.2508 -97.4856 137° Southeast 345 397 11,000 -180 Descending Fort Worth Center
10:27PM 33.1925 -97.4208 137° Southeast 318 366 11,000  Level Fort Worth Center
10:28PM 33.1256 -97.3414 135° Southeast 318 366 11,000  Level Fort Worth Center
10:29PM 33.0714 -97.2772 135° Southeast 311 358 11,000  Level Fort Worth Center
10:30PM 33.0086 -97.2003 134° Southeast 305 351 11,000  Level Fort Worth Center
10:31PM 32.9458 -97.1658 155° Southeast 279 321 11,000 -600 Level Fort Worth Center
10:32PM 32.8811 -97.1686 182° South 244 281 9,900 -1,380 Descending Fort Worth Center
10:33PM 32.8122 -97.1686 180° South 250 288 8,300 -1,980 Descending Fort Worth Center
10:34PM 32.7372 -97.1689 180° South 250 288 6,000 -2,340 Descending Fort Worth Center